createdAt,value
2018-08-31T13:18:40.059Z,21.00
2018-08-31T13:23:43.294Z,21.10
2018-08-31T13:28:46.484Z,21.30
2018-08-31T13:33:49.686Z,21.50
2018-08-31T13:38:52.825Z,21.40
2018-08-31T13:43:56.042Z,20.70
2018-08-31T13:48:59.219Z,20.10
2018-08-31T13:54:02.537Z,19.60
2018-08-31T13:59:05.841Z,20.00
2018-08-31T14:04:09.045Z,20.90
2018-08-31T14:09:12.283Z,20.80
2018-08-31T14:14:15.566Z,21.40
2018-08-31T14:19:18.758Z,22.00
2018-08-31T14:24:21.954Z,22.30
2018-08-31T14:29:25.230Z,22.60
2018-08-31T14:34:28.438Z,22.10
2018-08-31T14:39:31.630Z,22.40
2018-08-31T14:44:34.858Z,21.70
2018-08-31T14:49:38.213Z,21.70
2018-08-31T14:54:41.351Z,22.00
2018-08-31T14:59:44.586Z,21.50
2018-08-31T15:04:47.876Z,21.10
2018-08-31T15:09:51.556Z,20.50
2018-08-31T15:14:54.799Z,19.50
2018-08-31T15:19:58.022Z,18.70
2018-08-31T15:25:01.419Z,18.50
2018-08-31T15:30:05.375Z,18.40
2018-08-31T15:35:08.656Z,18.40
2018-08-31T15:40:11.881Z,18.40
2018-08-31T15:45:15.190Z,18.30
2018-08-31T15:50:18.390Z,18.40
2018-08-31T15:55:21.602Z,18.40
2018-08-31T16:00:24.811Z,18.60
2018-08-31T16:05:28.014Z,18.60
2018-08-31T16:10:31.491Z,18.70
2018-08-31T16:15:34.699Z,18.50
2018-08-31T16:20:37.986Z,18.50
2018-08-31T16:25:41.163Z,18.50
2018-08-31T16:30:44.379Z,18.30
2018-08-31T16:35:47.566Z,18.20
2018-08-31T16:40:50.962Z,18.10
2018-08-31T16:45:54.185Z,18.10
2018-08-31T16:50:57.390Z,18.00
2018-08-31T16:56:00.635Z,18.00
2018-08-31T17:01:03.839Z,17.80
2018-08-31T17:06:07.066Z,17.70
2018-08-31T17:11:10.285Z,17.70
2018-08-31T17:16:13.497Z,17.70
2018-08-31T17:21:16.770Z,17.60
2018-08-31T17:26:25.612Z,17.20
2018-08-31T17:31:34.142Z,17.40
2018-08-31T17:36:42.918Z,17.40
2018-08-31T17:41:46.133Z,17.20
2018-08-31T17:46:49.323Z,17.10
2018-08-31T17:51:52.569Z,17.00
2018-08-31T17:56:55.763Z,16.90
2018-08-31T18:01:59.012Z,16.70
2018-08-31T18:07:02.231Z,16.70
2018-08-31T18:12:05.459Z,16.80
2018-08-31T18:17:08.883Z,16.70
2018-08-31T18:22:12.124Z,16.50
2018-08-31T18:27:15.328Z,16.40
2018-08-31T18:32:18.530Z,16.30
2018-08-31T18:37:21.743Z,16.50
2018-08-31T18:42:24.982Z,16.40
2018-08-31T18:47:28.174Z,16.40
2018-08-31T18:52:31.490Z,16.20
2018-08-31T18:57:34.622Z,16.00
2018-08-31T19:02:37.835Z,16.00
2018-08-31T19:07:41.350Z,15.90
2018-08-31T19:12:44.569Z,15.70
2018-08-31T19:17:48.236Z,15.60
2018-08-31T19:22:51.482Z,15.60
2018-08-31T19:27:54.744Z,15.60
2018-08-31T19:32:57.934Z,15.30
2018-08-31T19:38:01.123Z,15.10
2018-08-31T19:43:04.438Z,14.90
2018-08-31T19:48:07.659Z,14.80
2018-08-31T19:53:10.862Z,14.80
2018-08-31T19:58:14.030Z,14.80
2018-08-31T20:03:17.226Z,14.60
2018-08-31T20:08:20.416Z,14.40
2018-08-31T20:13:23.593Z,14.50
2018-08-31T20:18:26.734Z,14.60
2018-08-31T20:23:29.903Z,14.50
2018-08-31T20:28:33.070Z,14.30
2018-08-31T20:33:36.246Z,14.30
2018-08-31T20:38:39.413Z,14.40
2018-08-31T20:43:42.586Z,14.20
2018-08-31T20:48:45.762Z,14.00
2018-08-31T20:53:49.399Z,13.90
2018-08-31T20:58:52.667Z,13.90
2018-08-31T21:03:55.857Z,13.70
2018-08-31T21:08:59.078Z,13.70
2018-08-31T21:14:02.270Z,13.50
2018-08-31T21:19:05.527Z,13.30
2018-08-31T21:24:08.703Z,13.20
2018-08-31T21:29:11.875Z,13.00
2018-08-31T21:34:15.150Z,12.70
2018-08-31T21:39:18.250Z,12.40
2018-08-31T21:44:21.432Z,12.30
2018-08-31T21:49:24.672Z,12.30
2018-08-31T21:54:28.170Z,12.00
2018-08-31T21:59:31.382Z,11.90
2018-08-31T22:04:34.612Z,12.00
2018-08-31T22:09:37.822Z,11.70
2018-08-31T22:14:41.027Z,11.50
2018-08-31T22:19:44.255Z,11.50
2018-08-31T22:24:47.514Z,11.50
2018-08-31T22:29:50.722Z,11.70
2018-08-31T22:34:53.956Z,11.80
2018-08-31T22:39:57.167Z,11.90
2018-08-31T22:45:00.397Z,11.80
2018-08-31T22:50:03.615Z,11.30
2018-08-31T22:55:06.966Z,11.00
2018-08-31T23:00:10.138Z,10.90
2018-08-31T23:05:13.295Z,10.90
2018-08-31T23:10:16.495Z,10.90
2018-08-31T23:15:19.681Z,10.90
2018-08-31T23:20:22.851Z,10.90
2018-08-31T23:25:31.413Z,10.80
2018-08-31T23:30:34.578Z,10.50
2018-08-31T23:35:37.747Z,10.30
2018-08-31T23:40:40.921Z,10.50
2018-08-31T23:45:44.086Z,10.60
2018-08-31T23:50:47.271Z,10.30
2018-08-31T23:55:50.446Z,10.20
